KESF/ESF METAR and TAF weather

Enter ICAO airport designator
Station Type Date Time Source
KESF METAR 2019/02/18 03:53 UTC NOAA

KESF 180353Z AUTO 36004KT 10SM BKN012 OVC070 08/07 A3005 RMK AO2 SLP176 T00780067


Station Type Date Time Source
KESF Decoded METAR 2019/02/18 03:53 UTC NOAA

ALEXANDRIA ESLER RGNL AIRPORT , LA, United States (KESF) 31-24N 092-18W 28M
Feb 17, 2019 - 10:53 PM EST / 2019.02.18 0353 UTC
Wind: from the N (360 degrees) at 5 MPH (4 KT):0
Visibility: 10 mile(s):0
Sky conditions: overcast
Temperature: 46.0 F (7.8 C)
Dew Point: 44.1 F (6.7 C)
Relative Humidity: 92%
Pressure (altimeter): 30.05 in. Hg (1017 hPa)
ob: KESF 180353Z AUTO 36004KT 10SM BKN012 OVC070 08/07 A3005 RMK AO2 SLP176 T00780067
cycle: 4

Station Type Date Time Source
KESF TAF UTC NOAA

Error!


Example: see airport list